Time;durP1;ratioP1;P1;durP2;ratioP2;P2;SDS_P1;SDS_P2;PMS_P1;PMS_P2;Temp;Humidity;BMP_temperature;BMP_pressure;BME280_temperature;BME280_humidity;BME280_pressure;Samples;Min_cycle;Max_cycle;Signal;HPM_P1;HPM_P2
2022/03/14 00:00:22;;;;;;;5.30;3.70;;;;;;;10.68;69.69;101506.41;5056826;28;20029;-77
2022/03/14 00:02:48;;;;;;;3.38;3.08;;;;;;;10.71;69.98;101520.38;5058689;28;20063;-78
2022/03/14 00:05:15;;;;;;;3.70;3.22;;;;;;;10.68;69.93;101515.34;5060182;28;20028;-77
2022/03/14 00:07:45;;;;;;;4.65;3.53;;;;;;;10.75;69.83;101516.34;5059330;28;20094;-79
2022/03/14 00:10:13;;;;;;;5.63;3.22;;;;;;;10.73;69.75;101518.38;5058939;28;20021;-76
2022/03/14 00:12:42;;;;;;;5.35;3.58;;;;;;;10.73;69.79;101514.84;5059107;28;20032;-77
2022/03/14 00:15:11;;;;;;;5.90;3.72;;;;;;;10.72;69.43;101522.09;5059403;28;20044;-78
2022/03/14 00:17:47;;;;;;;4.28;3.10;;;;;;;10.78;69.61;101525.94;5060339;28;20078;-77
2022/03/14 00:20:13;;;;;;;3.83;3.30;;;;;;;10.82;69.68;101542.59;5058657;28;20528;-79
2022/03/14 00:22:39;;;;;;;4.07;3.40;;;;;;;10.87;69.41;101537.56;5058296;28;20512;-79
2022/03/14 00:25:05;;;;;;;5.32;3.55;;;;;;;10.85;69.62;101537.75;5061886;28;20082;-78
2022/03/14 00:27:31;;;;;;;4.55;3.20;;;;;;;10.87;69.14;101545.66;5067628;28;20090;-76
2022/03/14 00:29:56;;;;;;;3.90;3.22;;;;;;;10.77;69.52;101541.28;5066757;28;20040;-78
2022/03/14 00:32:21;;;;;;;3.72;3.22;;;;;;;10.69;69.77;101532.31;5064227;28;20037;-78
2022/03/14 00:34:46;;;;;;;4.22;3.33;;;;;;;10.72;69.91;101538.22;5056731;28;20044;-78
2022/03/14 00:37:12;;;;;;;6.13;3.45;;;;;;;10.65;70.00;101534.50;5059223;28;20028;-78
2022/03/14 00:39:37;;;;;;;3.60;3.10;;;;;;;10.76;69.86;101542.25;5059438;28;20036;-78
2022/03/14 00:42:03;;;;;;;4.40;3.50;;;;;;;10.79;69.72;101548.31;5058739;28;20028;-78
2022/03/14 00:44:31;;;;;;;4.40;3.63;;;;;;;10.76;69.64;101546.81;5059031;28;20029;-77
2022/03/14 00:46:56;;;;;;;3.50;3.17;;;;;;;10.70;69.74;101552.88;5060364;28;20029;-78
2022/03/14 00:49:22;;;;;;;7.30;3.40;;;;;;;10.71;69.80;101552.69;5058239;28;20086;-79
2022/03/14 00:51:47;;;;;;;6.72;3.53;;;;;;;10.69;69.82;101554.72;5059204;28;20124;-77
2022/03/14 00:54:13;;;;;;;6.88;3.28;;;;;;;10.67;69.94;101562.13;5061702;28;20029;-78
2022/03/14 00:56:38;;;;;;;3.80;3.10;;;;;;;10.73;69.88;101560.59;5065302;28;20025;-78
2022/03/14 00:59:04;;;;;;;4.25;3.10;;;;;;;10.76;69.61;101571.03;5069126;28;20060;-78
2022/03/14 01:01:29;;;;;;;5.93;3.20;;;;;;;10.64;70.04;101562.44;5061350;28;20075;-77
2022/03/14 01:03:55;;;;;;;4.40;3.50;;;;;;;10.66;70.31;101568.50;5056023;28;20056;-75
2022/03/14 01:06:21;;;;;;;3.70;3.10;;;;;;;10.59;70.54;101575.56;5062404;28;20048;-77
2022/03/14 01:08:46;;;;;;;7.15;4.05;;;;;;;10.53;71.73;101570.81;5060747;28;20083;-77
2022/03/14 01:11:12;;;;;;;4.82;3.70;;;;;;;10.36;72.21;101574.47;5064395;28;20025;-77
2022/03/14 01:13:37;;;;;;;4.47;3.67;;;;;;;10.41;72.70;101582.91;5043887;28;20029;-78
2022/03/14 01:16:03;;;;;;;5.45;3.67;;;;;;;10.44;72.21;101579.88;5054593;28;20021;-77
2022/03/14 01:18:29;;;;;;;4.03;3.63;;;;;;;10.38;72.24;101592.13;5061878;28;20025;-77
2022/03/14 01:20:54;;;;;;;9.77;3.78;;;;;;;10.33;72.36;101583.72;5061496;28;20021;-76
2022/03/14 01:23:20;;;;;;;4.57;3.63;;;;;;;10.31;72.50;101586.56;5064416;28;20035;-76
2022/03/14 01:25:45;;;;;;;9.23;3.83;;;;;;;10.28;72.53;101594.13;5066462;28;20329;-77
2022/03/14 01:28:11;;;;;;;8.15;3.88;;;;;;;10.23;73.20;101599.09;5069580;28;20415;-77
2022/03/14 01:30:38;;;;;;;6.78;4.30;;;;;;;10.03;75.49;101615.50;5074967;28;20028;-78
2022/03/14 01:33:03;;;;;;;5.18;4.05;;;;;;;9.99;77.63;101602.50;5072282;28;20019;-77
2022/03/14 01:35:29;;;;;;;7.10;5.15;;;;;;;9.64;81.38;101607.84;5071455;28;20104;-78
2022/03/14 01:37:55;;;;;;;6.25;5.00;;;;;;;9.51;83.40;101625.38;5068846;28;20041;-77
2022/03/14 01:40:21;;;;;;;7.53;5.45;;;;;;;9.42;84.94;101608.31;5070948;28;20059;-79
2022/03/14 01:42:46;;;;;;;10.45;5.68;;;;;;;9.33;87.06;101612.78;5066085;28;20391;-78
2022/03/14 01:45:13;;;;;;;7.82;6.28;;;;;;;9.19;87.90;101616.03;5065379;28;20028;-77
2022/03/14 01:47:41;;;;;;;9.98;7.18;;;;;;;9.04;89.19;101618.41;5049546;28;20039;-77
2022/03/14 01:50:07;;;;;;;9.93;7.38;;;;;;;8.91;90.34;101624.16;5066088;28;20461;-78
2022/03/14 01:52:32;;;;;;;9.27;7.15;;;;;;;8.87;90.76;101629.97;5070151;28;20031;-77
2022/03/14 01:54:58;;;;;;;13.35;7.78;;;;;;;8.78;91.30;101624.50;5071347;28;20032;-77
2022/03/14 01:57:24;;;;;;;12.45;6.80;;;;;;;8.79;92.16;101625.34;5067072;28;20036;-77
2022/03/14 01:59:49;;;;;;;12.25;6.82;;;;;;;8.77;92.18;101630.03;5065051;28;20028;-76
2022/03/14 02:02:14;;;;;;;7.95;6.38;;;;;;;8.79;91.96;101628.03;5064217;28;20017;-76
2022/03/14 02:04:40;;;;;;;9.00;7.20;;;;;;;8.76;91.84;101623.81;5066328;28;20033;-76
2022/03/14 02:07:05;;;;;;;10.52;7.40;;;;;;;8.81;91.75;101636.78;5060351;28;20053;-77
2022/03/14 02:09:31;;;;;;;14.07;7.95;;;;;;;8.84;91.84;101644.53;5044219;28;20036;-76
2022/03/14 02:11:56;;;;;;;10.05;7.47;;;;;;;8.83;91.61;101645.53;5064466;28;20044;-76
2022/03/14 02:14:22;;;;;;;10.70;8.35;;;;;;;8.88;91.95;101642.41;5065661;28;20386;-77
2022/03/14 02:16:48;;;;;;;11.48;8.55;;;;;;;8.92;91.77;101649.97;5062736;28;20044;-77
2022/03/14 02:19:13;;;;;;;12.02;8.60;;;;;;;8.90;91.84;101656.50;5059887;28;20025;-77
2022/03/14 02:21:39;;;;;;;12.20;8.98;;;;;;;8.91;92.14;101664.41;5059051;28;20469;-77
2022/03/14 02:24:05;;;;;;;12.75;9.82;;;;;;;8.89;91.92;101666.41;5059719;28;20029;-77
2022/03/14 02:26:30;;;;;;;14.45;10.23;;;;;;;8.95;91.93;101671.19;5055961;28;20090;-76
2022/03/14 02:28:55;;;;;;;13.98;10.52;;;;;;;8.95;91.92;101671.19;5059244;28;20029;-77
2022/03/14 02:31:21;;;;;;;13.73;9.85;;;;;;;8.88;91.70;101670.09;5062535;28;20049;-77
2022/03/14 02:33:46;;;;;;;15.73;11.40;;;;;;;8.86;91.94;101677.44;5060955;28;20035;-76
2022/03/14 02:36:11;;;;;;;15.50;11.82;;;;;;;8.82;91.93;101686.81;5065457;28;20117;-75
2022/03/14 02:38:37;;;;;;;18.08;11.02;;;;;;;8.84;91.72;101684.78;5070522;28;20080;-76
2022/03/14 02:41:02;;;;;;;15.77;11.65;;;;;;;8.77;92.28;101689.09;5076040;28;20033;-77
2022/03/14 02:43:27;;;;;;;17.38;11.68;;;;;;;8.73;92.39;101693.06;5077467;28;20020;-78
2022/03/14 02:45:54;;;;;;;15.18;9.85;;;;;;;8.72;92.76;101689.53;5075159;28;20040;-77
2022/03/14 02:48:20;;;;;;;14.27;10.98;;;;;;;8.77;92.52;101692.63;5055249;28;20029;-77
2022/03/14 02:50:49;;;;;;;16.77;11.32;;;;;;;8.73;92.64;101688.53;5039518;28;20032;-76
2022/03/14 02:53:15;;;;;;;13.40;11.18;;;;;;;8.78;92.69;101690.78;5070371;28;20024;-76
2022/03/14 02:55:40;;;;;;;16.33;12.18;;;;;;;8.82;92.75;101704.72;5067496;28;20068;-75
2022/03/14 02:58:06;;;;;;;19.25;12.82;;;;;;;8.71;93.40;101709.28;5058020;28;20025;-76
2022/03/14 03:00:35;;;;;;;20.65;13.13;;;;;;;8.69;93.83;101708.63;5060012;28;20033;-76
2022/03/14 03:03:00;;;;;;;20.83;14.05;;;;;;;8.70;94.63;101720.19;5059883;28;20023;-76
2022/03/14 03:05:26;;;;;;;20.63;14.35;;;;;;;8.68;95.44;101712.28;5062845;28;20090;-76
2022/03/14 03:07:56;;;;;;;20.20;15.20;;;;;;;8.64;95.78;101720.78;5111432;22;20069;-50
2022/03/14 03:10:22;;;;;;;24.38;17.00;;;;;;;8.57;96.40;101726.72;5070727;28;20578;-49
2022/03/14 03:12:47;;;;;;;31.10;20.30;;;;;;;8.56;96.79;101735.78;5056025;28;20055;-50
2022/03/14 03:15:15;;;;;;;33.17;21.30;;;;;;;8.60;96.94;101727.44;5065240;28;20497;-49
2022/03/14 03:17:41;;;;;;;31.13;21.40;;;;;;;8.55;97.07;101735.91;5071086;28;20028;-47
2022/03/14 03:20:08;;;;;;;32.92;23.60;;;;;;;8.51;97.28;101740.75;5071153;28;20029;-46
2022/03/14 03:22:33;;;;;;;35.97;23.27;;;;;;;8.51;97.36;101747.97;5071161;28;20051;-47
2022/03/14 03:24:58;;;;;;;35.22;23.17;;;;;;;8.49;97.01;101750.78;5063513;28;20024;-50
2022/03/14 03:27:24;;;;;;;37.50;23.23;;;;;;;8.54;97.02;101759.22;5071348;28;20085;-49
2022/03/14 03:29:50;;;;;;;35.28;23.85;;;;;;;8.57;97.09;101761.63;5070779;28;20367;-49
2022/03/14 03:32:15;;;;;;;37.40;24.20;;;;;;;8.57;96.82;101769.66;5071024;28;20494;-48
2022/03/14 03:34:40;;;;;;;39.78;24.55;;;;;;;8.61;97.12;101764.88;5070105;28;20076;-50
2022/03/14 03:37:06;;;;;;;40.92;25.33;;;;;;;8.56;97.14;101759.94;5069807;28;20502;-46
2022/03/14 03:39:32;;;;;;;39.40;23.75;;;;;;;8.49;97.13;101772.22;5069697;28;20066;-48
2022/03/14 03:41:57;;;;;;;38.42;23.83;;;;;;;8.50;97.21;101784.63;5060907;28;20029;-48
2022/03/14 03:44:23;;;;;;;31.13;18.05;;;;;;;8.47;97.48;101784.09;5068444;28;20040;-49
2022/03/14 03:46:48;;;;;;;31.85;17.83;;;;;;;8.44;97.50;101790.59;5068353;28;20441;-48
2022/03/14 03:49:13;;;;;;;30.63;16.83;;;;;;;8.35;97.09;101796.81;5070629;28;20085;-50
2022/03/14 03:51:39;;;;;;;33.20;15.52;;;;;;;8.41;97.24;101808.84;5070137;28;20025;-47
2022/03/14 03:54:04;;;;;;;28.13;14.57;;;;;;;8.41;96.89;101812.34;5068433;28;20367;-47
2022/03/14 03:56:30;;;;;;;28.08;12.88;;;;;;;8.37;96.74;101818.94;5062872;28;20118;-47
2022/03/14 03:58:55;;;;;;;28.15;11.02;;;;;;;8.33;96.76;101820.25;5069707;28;20055;-50
2022/03/14 04:01:22;;;;;;;20.98;10.02;;;;;;;8.34;96.12;101827.28;5068453;28;20111;-48
2022/03/14 04:03:54;;;;;;;23.48;8.40;;;;;;;8.24;95.87;101834.50;5069954;28;20430;-47
2022/03/14 04:06:27;;;;;;;20.13;7.97;;;;;;;8.27;95.60;101837.75;5068245;28;20036;-49
2022/03/14 04:08:54;;;;;;;23.83;7.25;;;;;;;8.32;95.68;101840.00;5049064;28;20055;-48
2022/03/14 04:11:20;;;;;;;22.00;7.32;;;;;;;8.27;94.78;101839.59;5044775;28;20393;-51
2022/03/14 04:13:46;;;;;;;19.00;7.13;;;;;;;8.27;94.99;101853.84;5049777;28;20028;-47
2022/03/14 04:16:12;;;;;;;16.52;6.72;;;;;;;8.30;94.63;101855.41;5044414;28;20021;-49
2022/03/14 04:18:37;;;;;;;13.68;6.55;;;;;;;8.28;93.79;101862.75;5049665;28;20476;-47
2022/03/14 04:21:02;;;;;;;12.93;4.95;;;;;;;8.25;93.87;101866.53;5049121;28;20341;-48
2022/03/14 04:23:31;;;;;;;13.05;4.57;;;;;;;8.23;93.27;101870.34;5049551;28;20029;-50
2022/03/14 04:25:56;;;;;;;17.65;5.45;;;;;;;8.25;93.33;101876.44;5047130;28;20031;-47
2022/03/14 04:28:22;;;;;;;19.15;6.10;;;;;;;8.24;93.50;101877.41;5049126;28;20033;-49
2022/03/14 04:30:48;;;;;;;18.85;5.22;;;;;;;8.24;93.30;101886.31;5049561;28;20032;-50
2022/03/14 04:33:13;;;;;;;14.38;4.75;;;;;;;8.25;93.35;101895.22;5049548;28;20119;-51
2022/03/14 04:35:39;;;;;;;16.92;4.38;;;;;;;8.20;93.25;101895.63;5049476;28;20111;-49
2022/03/14 04:38:06;;;;;;;16.25;4.63;;;;;;;8.17;92.72;101906.63;5049995;28;20029;-50
2022/03/14 04:40:34;;;;;;;16.85;4.97;;;;;;;8.19;92.40;101909.16;5052434;28;20029;-50
2022/03/14 04:43:07;;;;;;;21.55;5.13;;;;;;;8.16;92.20;101912.97;5053280;28;20021;-49
2022/03/14 04:45:34;;;;;;;25.63;6.50;;;;;;;8.20;92.60;101921.59;5052967;28;20428;-50
2022/03/14 04:48:01;;;;;;;17.70;6.28;;;;;;;8.18;92.76;101924.41;5053610;28;20083;-49
2022/03/14 04:50:27;;;;;;;16.80;6.93;;;;;;;8.19;92.94;101934.16;5053061;28;20033;-48
2022/03/14 04:52:52;;;;;;;18.45;7.25;;;;;;;8.18;92.82;101945.84;5053365;28;20040;-50
2022/03/14 04:55:17;;;;;;;22.13;8.18;;;;;;;8.19;92.98;101946.69;5053066;28;20413;-49
2022/03/14 04:57:43;;;;;;;19.30;7.22;;;;;;;8.18;92.93;101951.22;5052481;28;20032;-53
2022/03/14 05:00:08;;;;;;;18.88;7.43;;;;;;;8.11;93.08;101964.34;5052498;28;20029;-47
2022/03/14 05:02:34;;;;;;;13.95;6.47;;;;;;;8.16;93.25;101963.06;5051893;28;20029;-48
2022/03/14 05:05:00;;;;;;;25.83;8.65;;;;;;;8.17;93.29;101970.16;5052939;28;20127;-50
2022/03/14 05:07:25;;;;;;;20.33;7.80;;;;;;;8.16;93.38;101971.13;5051273;28;20037;-49
2022/03/14 05:09:51;;;;;;;31.48;9.90;;;;;;;8.10;93.33;101970.69;5052960;28;20518;-49
2022/03/14 05:12:16;;;;;;;21.85;10.75;;;;;;;8.07;93.47;101970.97;5035348;28;20369;-51
2022/03/14 05:14:42;;;;;;;22.25;9.98;;;;;;;8.06;94.08;101980.00;5039500;28;20030;-48
2022/03/14 05:17:08;;;;;;;27.48;12.18;;;;;;;8.05;94.27;101977.44;5052029;28;20033;-49
2022/03/14 05:19:34;;;;;;;27.30;13.82;;;;;;;8.04;94.37;101983.81;5052414;28;20067;-49
2022/03/14 05:21:59;;;;;;;36.05;15.27;;;;;;;8.05;94.69;101993.53;5053338;28;20464;-47
2022/03/14 05:24:25;;;;;;;31.17;15.40;;;;;;;8.06;94.85;101997.94;5052468;28;20032;-48
2022/03/14 05:26:52;;;;;;;32.92;16.75;;;;;;;8.05;95.03;102005.09;5050904;28;20054;-47
2022/03/14 05:29:18;;;;;;;37.72;17.50;;;;;;;8.07;94.92;102010.34;5052439;28;20067;-46
2022/03/14 05:31:43;;;;;;;32.10;18.05;;;;;;;8.05;95.42;102012.31;5052810;28;20028;-48
2022/03/14 05:34:09;;;;;;;34.88;19.05;;;;;;;8.03;95.12;102019.63;5051580;28;20024;-52
2022/03/14 05:36:34;;;;;;;33.88;19.17;;;;;;;8.00;95.50;102026.09;5052139;28;20620;-50
2022/03/14 05:38:59;;;;;;;34.50;17.98;;;;;;;7.98;95.45;102025.41;5052145;28;20064;-51
2022/03/14 05:41:25;;;;;;;35.03;18.88;;;;;;;8.01;95.87;102029.66;5052522;28;20029;-47
2022/03/14 05:43:50;;;;;;;31.05;20.30;;;;;;;7.98;95.82;102025.41;5052498;28;20033;-50
2022/03/14 05:46:16;;;;;;;36.30;19.60;;;;;;;7.97;95.62;102029.06;5051835;28;20041;-51
2022/03/14 05:48:41;;;;;;;37.55;20.02;;;;;;;8.01;96.08;102035.03;5052710;28;20032;-50
2022/03/14 05:51:08;;;;;;;33.75;20.15;;;;;;;7.98;95.80;102029.91;5051189;28;20082;-51
2022/03/14 05:53:34;;;;;;;35.25;19.42;;;;;;;7.99;95.74;102028.94;5052267;28;20036;-50
2022/03/14 05:55:59;;;;;;;36.40;21.00;;;;;;;7.97;95.78;102031.75;5036811;28;20022;-50
2022/03/14 05:58:24;;;;;;;37.70;20.40;;;;;;;7.99;96.01;102032.47;5032115;28;20045;-49
2022/03/14 06:00:52;;;;;;;35.58;18.42;;;;;;;7.99;96.18;102039.66;5051244;28;20210;-48
2022/03/14 06:03:20;;;;;;;30.00;18.02;;;;;;;7.98;95.85;102044.19;5051090;28;20416;-51
2022/03/14 06:05:47;;;;;;;30.45;18.73;;;;;;;8.00;95.93;102047.56;5031403;28;20026;-49
2022/03/14 06:08:13;;;;;;;29.70;17.50;;;;;;;7.99;95.84;102040.50;5051365;28;20403;-47
2022/03/14 06:10:38;;;;;;;30.67;16.63;;;;;;;8.01;95.43;102051.13;5048146;28;20026;-49
2022/03/14 06:13:04;;;;;;;34.58;16.17;;;;;;;7.94;95.40;102064.19;5050758;28;20086;-50
2022/03/14 06:15:29;;;;;;;31.33;15.98;;;;;;;7.94;95.19;102066.88;5051552;28;20029;-48
2022/03/14 06:17:55;;;;;;;26.52;16.80;;;;;;;7.92;95.35;102074.19;5051360;28;20029;-51
2022/03/14 06:20:20;;;;;;;25.63;15.93;;;;;;;7.96;95.47;102086.34;5043294;28;20037;-49
2022/03/14 06:22:46;;;;;;;26.52;16.77;;;;;;;7.96;95.71;102086.34;5051151;28;20064;-50
2022/03/14 06:25:13;;;;;;;29.02;16.42;;;;;;;7.96;95.42;102083.69;5051186;28;20017;-51
2022/03/14 06:27:39;;;;;;;29.58;17.25;;;;;;;7.97;95.62;102093.41;5051010;28;20067;-49
2022/03/14 06:30:05;;;;;;;32.40;16.77;;;;;;;8.00;95.38;102093.13;5051187;28;20457;-50
2022/03/14 06:32:35;;;;;;;29.70;17.02;;;;;;;8.01;95.35;102099.38;5051967;28;20037;-47
2022/03/14 06:35:01;;;;;;;26.73;16.38;;;;;;;8.01;95.29;102094.84;5051361;28;20041;-50
2022/03/14 06:37:26;;;;;;;26.80;17.17;;;;;;;8.01;95.14;102100.22;5047180;28;20360;-51
2022/03/14 06:39:52;;;;;;;32.10;17.73;;;;;;;8.04;95.16;102110.66;5051598;28;20243;-48
2022/03/14 06:42:19;;;;;;;29.75;17.58;;;;;;;8.04;95.38;102120.53;5050730;28;20047;-47
2022/03/14 06:44:46;;;;;;;36.53;18.83;;;;;;;8.04;95.37;102118.69;5051077;28;20527;-47
2022/03/14 06:47:12;;;;;;;29.52;18.40;;;;;;;8.03;95.33;102124.19;5051151;28;20032;-48
2022/03/14 06:49:39;;;;;;;31.15;18.55;;;;;;;8.07;95.17;102129.16;5050736;28;20466;-50
2022/03/14 06:52:05;;;;;;;33.88;17.27;;;;;;;8.05;95.00;102136.47;5032614;28;20036;-48
2022/03/14 06:54:30;;;;;;;32.72;18.10;;;;;;;8.05;95.12;102139.16;5050997;28;20029;-48
2022/03/14 06:56:56;;;;;;;31.13;17.75;;;;;;;8.05;95.33;102149.88;5050448;28;20508;-48
2022/03/14 06:59:21;;;;;;;31.95;17.67;;;;;;;8.11;95.05;102138.66;5050782;28;20099;-47
2022/03/14 07:01:46;;;;;;;28.92;17.65;;;;;;;8.19;95.27;102145.16;5048188;28;20041;-51
2022/03/14 07:04:12;;;;;;;30.38;17.50;;;;;;;8.21;95.44;102152.06;5048632;28;20139;-49
2022/03/14 07:06:37;;;;;;;28.98;17.20;;;;;;;8.28;95.30;102155.09;5049819;28;20388;-50
2022/03/14 07:09:04;;;;;;;27.70;16.35;;;;;;;8.28;94.88;102153.25;5050583;28;20498;-50
2022/03/14 07:11:30;;;;;;;30.92;16.98;;;;;;;8.34;94.63;102155.38;5050075;28;20033;-48
2022/03/14 07:13:55;;;;;;;28.98;16.25;;;;;;;8.29;94.49;102156.78;5049795;28;20060;-48
2022/03/14 07:16:20;;;;;;;26.80;16.95;;;;;;;8.29;94.17;102157.66;5049894;28;20462;-51
2022/03/14 07:18:46;;;;;;;27.65;15.98;;;;;;;8.30;93.92;102153.97;5050403;28;20047;-48
2022/03/14 07:21:11;;;;;;;27.75;17.33;;;;;;;8.31;93.96;102162.84;5050053;28;20479;-49
2022/03/14 07:23:37;;;;;;;31.35;17.17;;;;;;;8.34;93.74;102157.22;5050206;28;20075;-46
2022/03/14 07:26:03;;;;;;;31.20;18.00;;;;;;;8.31;93.76;102165.53;5049966;28;20476;-52
2022/03/14 07:28:28;;;;;;;37.83;18.10;;;;;;;8.37;93.51;102165.00;5049960;28;20061;-48
2022/03/14 07:30:54;;;;;;;33.05;18.60;;;;;;;8.45;93.40;102167.91;5044372;28;20071;-47
2022/03/14 07:33:20;;;;;;;44.15;20.30;;;;;;;8.45;92.93;102167.91;5030208;28;20477;-46
2022/03/14 07:35:45;;;;;;;44.78;22.08;;;;;;;8.45;92.82;102175.94;5037524;28;20574;-47
2022/03/14 07:38:10;;;;;;;64.45;29.02;;;;;;;8.47;92.29;102179.31;5049246;28;20476;-48
2022/03/14 07:40:36;;;;;;;56.65;25.88;;;;;;;8.49;92.13;102185.41;5040285;28;20040;-46
2022/03/14 07:43:02;;;;;;;74.25;33.63;;;;;;;8.40;91.88;102191.59;5025155;28;20025;-49
2022/03/14 07:45:28;;;;;;;59.63;27.65;;;;;;;8.43;91.73;102190.50;5049537;28;20533;-47
2022/03/14 07:47:55;;;;;;;62.38;29.45;;;;;;;8.42;92.08;102194.97;5046657;28;20041;-53
2022/03/14 07:50:21;;;;;;;52.28;26.73;;;;;;;8.47;92.38;102202.63;5049285;28;20112;-47
2022/03/14 07:52:47;;;;;;;52.70;27.30;;;;;;;8.55;92.40;102200.97;5049459;28;20565;-47
2022/03/14 07:55:13;;;;;;;51.60;29.70;;;;;;;8.51;91.95;102199.56;5049043;28;20136;-48
2022/03/14 07:57:39;;;;;;;56.35;28.90;;;;;;;8.52;91.84;102205.75;5049247;28;20032;-47
2022/03/14 08:00:13;;;;;;;51.55;29.10;;;;;;;8.55;92.02;102214.38;5048470;28;20115;-46
2022/03/14 08:02:38;;;;;;;58.55;30.00;;;;;;;8.50;91.53;102224.66;5048129;28;20032;-51
2022/03/14 08:05:05;;;;;;;59.63;31.58;;;;;;;8.50;91.63;102232.72;5049507;28;20027;-48
2022/03/14 08:07:31;;;;;;;52.67;30.23;;;;;;;8.49;91.98;102236.41;5049282;28;20545;-49
2022/03/14 08:09:56;;;;;;;66.85;31.98;;;;;;;8.52;91.67;102238.81;5049655;28;20116;-47
2022/03/14 08:12:22;;;;;;;60.53;34.15;;;;;;;8.51;91.84;102241.63;5035533;28;20503;-49
2022/03/14 08:14:48;;;;;;;61.13;33.08;;;;;;;8.46;91.54;102252.75;5046418;28;20024;-49
2022/03/14 08:17:14;;;;;;;52.15;30.40;;;;;;;8.48;91.64;102245.44;5049584;28;20425;-49
2022/03/14 08:19:39;;;;;;;56.55;27.55;;;;;;;8.47;91.98;102248.25;5045053;28;20037;-48
2022/03/14 08:22:05;;;;;;;43.90;26.00;;;;;;;8.57;91.99;102263.41;5048701;28;20025;-48
2022/03/14 08:24:30;;;;;;;46.47;25.52;;;;;;;8.64;91.94;102253.00;5048513;28;20345;-48
2022/03/14 08:26:56;;;;;;;40.22;23.80;;;;;;;8.71;91.24;102255.97;5045389;28;20356;-47
2022/03/14 08:29:21;;;;;;;44.58;23.92;;;;;;;8.79;91.33;102264.19;5048332;28;20163;-47
2022/03/14 08:31:47;;;;;;;36.78;21.23;;;;;;;8.81;90.40;102261.38;5048078;28;20570;-48
2022/03/14 08:34:13;;;;;;;39.67;21.60;;;;;;;8.87;90.20;102271.56;5033224;28;20026;-51
2022/03/14 08:36:40;;;;;;;61.58;23.80;;;;;;;8.82;89.65;102274.69;5028385;28;20285;-48
2022/03/14 08:39:06;;;;;;;36.38;21.65;;;;;;;8.80;89.16;102273.97;5041641;28;20025;-51
2022/03/14 08:41:31;;;;;;;36.80;21.00;;;;;;;8.85;89.17;102282.47;5048514;28;20138;-48
2022/03/14 08:43:57;;;;;;;43.75;20.80;;;;;;;8.79;89.06;102280.31;5045662;28;20518;-49
2022/03/14 08:46:23;;;;;;;39.58;21.80;;;;;;;8.97;88.97;102284.03;5048310;28;20044;-48
2022/03/14 08:48:48;;;;;;;44.33;21.13;;;;;;;9.01;88.54;102293.53;5044178;28;20025;-49
2022/03/14 08:51:13;;;;;;;38.10;20.63;;;;;;;9.03;88.13;102298.78;5048942;28;20159;-47
2022/03/14 08:53:39;;;;;;;40.97;21.63;;;;;;;9.06;88.25;102306.56;5048984;28;20079;-48
2022/03/14 08:56:05;;;;;;;46.58;23.27;;;;;;;9.17;88.71;102313.69;5048853;28;20091;-49
2022/03/14 08:58:30;;;;;;;57.65;26.33;;;;;;;9.14;87.90;102312.09;5040697;28;20025;-50
2022/03/14 09:00:59;;;;;;;50.05;23.25;;;;;;;9.20;87.66;102310.72;5045844;28;20036;-48
2022/03/14 09:03:26;;;;;;;45.05;23.58;;;;;;;9.18;87.45;102310.00;5046668;28;20166;-48
2022/03/14 09:05:54;;;;;;;61.37;23.63;;;;;;;9.21;87.26;102321.28;5047921;28;20021;-47
2022/03/14 09:08:19;;;;;;;46.15;23.55;;;;;;;9.20;87.27;102318.78;5047339;28;20092;-48
2022/03/14 09:10:46;;;;;;;41.70;23.08;;;;;;;9.22;87.38;102316.81;5048490;28;20388;-50
2022/03/14 09:13:11;;;;;;;40.45;22.08;;;;;;;9.34;87.56;102321.06;5048766;28;20029;-48
2022/03/14 09:15:37;;;;;;;39.20;20.55;;;;;;;9.44;86.47;102323.78;5064694;28;20131;-48
2022/03/14 09:18:03;;;;;;;32.67;18.85;;;;;;;9.53;86.04;102336.41;5047879;28;20468;-48
2022/03/14 09:20:29;;;;;;;43.05;18.05;;;;;;;9.63;85.80;102331.84;5049217;28;20067;-50
2022/03/14 09:22:56;;;;;;;37.22;18.67;;;;;;;9.81;85.88;102329.34;5048642;28;20033;-53
2022/03/14 09:25:21;;;;;;;35.90;17.85;;;;;;;9.89;84.91;102332.16;5048872;28;20480;-52
2022/03/14 09:27:48;;;;;;;31.60;18.13;;;;;;;10.06;84.24;102337.88;5050650;28;20191;-49
2022/03/14 09:30:14;;;;;;;34.13;17.13;;;;;;;10.14;84.03;102338.00;5045697;28;20025;-52
2022/03/14 09:32:40;;;;;;;36.70;16.00;;;;;;;9.95;83.04;102340.66;5050705;28;20079;-52
2022/03/14 09:35:06;;;;;;;33.33;16.65;;;;;;;9.77;83.78;102354.81;5052028;28;20048;-51
2022/03/14 09:37:33;;;;;;;39.88;16.98;;;;;;;9.71;84.10;102349.97;5051271;28;20039;-49
2022/03/14 09:39:58;;;;;;;32.22;17.52;;;;;;;9.77;84.33;102344.06;5047108;28;20492;-50
2022/03/14 09:42:24;;;;;;;31.27;16.40;;;;;;;9.76;83.91;102357.63;5051609;28;20099;-50
2022/03/14 09:44:53;;;;;;;31.63;15.43;;;;;;;9.81;83.86;102361.59;5060314;28;20139;-49
2022/03/14 09:47:23;;;;;;;34.13;15.00;;;;;;;9.65;84.33;102366.69;5050353;28;20029;-49
2022/03/14 09:49:49;;;;;;;41.38;17.52;;;;;;;9.60;84.33;102368.94;5045687;28;20483;-51
2022/03/14 09:52:15;;;;;;;34.55;18.38;;;;;;;9.71;84.34;102376.88;5051245;28;20336;-52
2022/03/14 09:54:41;;;;;;;34.75;17.38;;;;;;;9.80;83.79;102373.38;5051420;28;20032;-49
2022/03/14 09:57:06;;;;;;;38.92;18.52;;;;;;;10.03;83.54;102373.09;5051661;28;20045;-48
2022/03/14 09:59:35;;;;;;;33.30;17.85;;;;;;;10.09;82.71;102370.69;5051485;28;20060;-48
2022/03/14 10:02:00;;;;;;;38.80;17.92;;;;;;;10.30;82.58;102378.66;5060446;28;20028;-44
2022/03/14 10:04:26;;;;;;;48.53;19.75;;;;;;;10.40;81.94;102375.09;5070951;28;20041;-44
2022/03/14 10:06:51;;;;;;;41.13;20.90;;;;;;;10.38;81.80;102391.41;5068005;28;20021;-43
2022/03/14 10:09:16;;;;;;;41.88;19.65;;;;;;;10.45;81.08;102388.97;5077195;28;20051;-44
2022/03/14 10:11:42;;;;;;;40.63;19.48;;;;;;;10.38;80.91;102390.56;5077251;28;20219;-42
2022/03/14 10:14:10;;;;;;;36.15;19.27;;;;;;;10.50;81.09;102384.00;5077277;28;20052;-44
2022/03/14 10:16:35;;;;;;;40.17;19.08;;;;;;;10.59;80.63;102380.47;5092648;28;20029;-44
2022/03/14 10:19:02;;;;;;;41.15;19.08;;;;;;;11.15;79.29;102384.97;5076725;28;20036;-42
2022/03/14 10:21:32;;;;;;;36.85;19.98;;;;;;;11.85;76.93;102397.97;5076266;28;20040;-44
2022/03/14 10:24:06;;;;;;;44.30;20.25;;;;;;;11.99;74.02;102415.50;5075803;28;20033;-43
2022/03/14 10:26:33;;;;;;;35.40;17.65;;;;;;;12.35;72.94;102410.97;5076635;28;20049;-46
2022/03/14 10:28:59;;;;;;;37.00;16.08;;;;;;;12.99;71.67;102418.88;5076568;28;20028;-42
2022/03/14 10:31:28;;;;;;;30.85;14.88;;;;;;;13.58;71.08;102411.75;5076723;28;20025;-43
2022/03/14 10:34:03;;;;;;;35.90;17.38;;;;;;;13.38;67.91;102419.28;5076754;28;20029;-42
2022/03/14 10:36:45;;;;;;;34.80;17.77;;;;;;;12.76;69.41;102424.78;5076471;28;20055;-45
2022/03/14 10:39:34;;;;;;;37.35;18.33;;;;;;;12.22;71.73;102427.53;5076389;28;20027;-44
2022/03/14 10:41:59;;;;;;;28.95;16.90;;;;;;;12.38;72.41;102426.00;5074539;28;20055;-42
2022/03/14 10:44:25;;;;;;;39.27;17.70;;;;;;;12.32;72.29;102427.44;5074313;28;20016;-42
2022/03/14 10:46:50;;;;;;;42.28;17.25;;;;;;;12.15;72.70;102428.31;5075451;28;20287;-45
2022/03/14 10:49:16;;;;;;;34.95;17.83;;;;;;;12.42;72.80;102422.81;5076515;28;20017;-42
2022/03/14 10:52:01;;;;;;;37.70;16.30;;;;;;;12.48;71.30;102429.44;5075956;28;20017;-44
2022/03/14 10:54:27;;;;;;;37.80;16.33;;;;;;;12.32;72.18;102427.44;5056439;28;20022;-42
2022/03/14 10:57:00;;;;;;;32.95;16.20;;;;;;;11.75;72.97;102435.78;5060920;28;20040;-44
2022/03/14 10:59:37;;;;;;;30.30;16.23;;;;;;;11.61;73.45;102457.84;5076327;28;20023;-45
2022/03/14 11:02:04;;;;;;;28.58;16.63;;;;;;;11.73;74.77;102458.50;5075490;28;20342;-43
2022/03/14 11:04:38;;;;;;;24.47;13.87;;;;;;;11.84;74.67;102461.84;5076318;28;20016;-43
2022/03/14 11:07:04;;;;;;;25.95;13.07;;;;;;;11.91;73.62;102466.69;5069576;28;20084;-43
2022/03/14 11:09:40;;;;;;;35.30;14.07;;;;;;;11.78;73.52;102470.53;5072332;28;20036;-43
2022/03/14 11:12:11;;;;;;;32.25;14.88;;;;;;;11.68;73.51;102471.59;5075909;28;20100;-42
2022/03/14 11:14:37;;;;;;;33.67;14.38;;;;;;;11.87;74.53;102471.50;5075560;28;20075;-43